Time;durP1;ratioP1;P1;durP2;ratioP2;P2;SDS_P1;SDS_P2;PMS_P1;PMS_P2;Temp;Humidity;BMP_temperature;BMP_pressure;BME280_temperature;BME280_humidity;BME280_pressure;Samples;Min_cycle;Max_cycle;Signal;HPM_P1;HPM_P2
2022/01/25 00:09:34;;;;;;;1999.90;999.90;;;;;;;;;;5013408;28;20200;-69
2022/01/25 00:15:49;;;;;;;1999.90;999.90;;;;;;;;;;5013519;28;20238;-70
2022/01/25 00:25:03;;;;;;;1999.90;999.90;;;;;;;;;;5013527;28;20569;-70
2022/01/25 00:27:53;;;;;;;1999.90;999.90;;;;;;;;;;5013212;28;20196;-70
2022/01/25 00:30:57;;;;;;;1999.90;999.90;;;;;;;;;;5013528;28;20200;-68
2022/01/25 00:33:43;;;;;;;1999.90;999.90;;;;;;;;;;5013007;28;20313;-70
2022/01/25 00:36:30;;;;;;;1999.90;999.90;;;;;;;;;;5012996;28;20606;-70
2022/01/25 00:39:15;;;;;;;1999.90;999.90;;;;;;;;;;5012541;28;20270;-71
2022/01/25 00:42:00;;;;;;;1999.90;999.90;;;;;;;;;;5013240;28;20698;-70
2022/01/25 00:44:49;;;;;;;1999.90;999.90;;;;;;;;;;5013088;28;20226;-68
2022/01/25 00:47:34;;;;;;;1999.90;999.90;;;;;;;;;;5012952;28;20287;-69
2022/01/25 00:50:18;;;;;;;1999.90;999.90;;;;;;;;;;5013357;28;20583;-70
2022/01/25 00:56:06;;;;;;;1999.90;999.90;;;;;;;;;;5012964;28;20280;-70
2022/01/25 00:58:51;;;;;;;1999.90;999.90;;;;;;;;;;5012343;28;20727;-70
2022/01/25 01:01:38;;;;;;;1999.90;999.90;;;;;;;;;;5012722;28;20206;-70
2022/01/25 01:04:24;;;;;;;1999.90;999.90;;;;;;;;;;5012929;28;20693;-70
2022/01/25 01:07:11;;;;;;;1999.90;999.90;;;;;;;;;;5012814;28;20326;-70
2022/01/25 01:09:57;;;;;;;1999.90;999.90;;;;;;;;;;5012154;28;20208;-71
2022/01/25 01:13:19;;;;;;;1999.90;999.90;;;;;;;;;;5012785;28;20207;-70
2022/01/25 01:16:29;;;;;;;1999.90;999.90;;;;;;;;;;5012111;28;20357;-70
2022/01/25 01:31:28;;;;;;;1999.90;999.90;;;;;;;;;;5012549;28;20705;-69
2022/01/25 01:34:40;;;;;;;1999.90;999.90;;;;;;;;;;5012207;28;20685;-69
2022/01/25 01:40:53;;;;;;;1999.90;999.90;;;;;;;;;;5012330;28;20213;-68
2022/01/25 01:43:38;;;;;;;1999.90;999.90;;;;;;;;;;5012237;28;20204;-70
2022/01/25 01:46:33;;;;;;;1999.90;999.90;;;;;;;;;;5012230;28;20265;-70
2022/01/25 01:49:20;;;;;;;1999.90;999.90;;;;;;;;;;5011826;28;20215;-69
2022/01/25 01:52:05;;;;;;;1999.90;999.90;;;;;;;;;;5012169;28;20289;-70
2022/01/25 01:54:50;;;;;;;1999.90;999.90;;;;;;;;;;5012241;28;20258;-69
2022/01/25 01:57:35;;;;;;;1999.90;999.90;;;;;;;;;;5011685;28;20211;-69
2022/01/25 02:00:23;;;;;;;1999.90;999.90;;;;;;;;;;5012371;28;20211;-70
2022/01/25 02:03:08;;;;;;;1999.90;999.90;;;;;;;;;;5012206;28;20588;-69
2022/01/25 02:05:55;;;;;;;1999.90;999.90;;;;;;;;;;5012024;28;20231;-69
2022/01/25 02:08:40;;;;;;;1999.90;999.90;;;;;;;;;;5011678;28;20200;-70
2022/01/25 02:11:25;;;;;;;1999.90;999.90;;;;;;;;;;5012081;28;20212;-69
2022/01/25 02:14:13;;;;;;;1999.90;999.90;;;;;;;;;;5011984;28;20255;-69
2022/01/25 02:17:06;;;;;;;1999.90;999.90;;;;;;;;;;5011782;28;20239;-69
2022/01/25 02:23:14;;;;;;;1999.90;999.90;;;;;;;;;;5011678;28;20204;-70
2022/01/25 02:26:00;;;;;;;1999.90;999.90;;;;;;;;;;5011717;28;20672;-70
2022/01/25 02:28:45;;;;;;;1999.90;999.90;;;;;;;;;;5011608;28;20207;-70
2022/01/25 02:31:30;;;;;;;1999.90;999.90;;;;;;;;;;5011961;28;20330;-70
2022/01/25 02:34:15;;;;;;;1999.90;999.90;;;;;;;;;;5013874;28;20276;-70
2022/01/25 02:37:03;;;;;;;1999.90;999.90;;;;;;;;;;5015483;28;20577;-70
2022/01/25 02:39:48;;;;;;;1999.90;999.90;;;;;;;;;;5014595;28;20427;-70
2022/01/25 02:42:33;;;;;;;1999.90;999.90;;;;;;;;;;5015071;28;20222;-70
2022/01/25 02:45:18;;;;;;;1999.90;999.90;;;;;;;;;;5015156;28;20222;-70
2022/01/25 02:51:06;;;;;;;1999.90;999.90;;;;;;;;;;5015180;28;20204;-70
2022/01/25 02:53:53;;;;;;;1999.90;999.90;;;;;;;;;;5014815;28;20226;-70
2022/01/25 02:56:39;;;;;;;1999.90;999.90;;;;;;;;;;5014741;28;20716;-70
2022/01/25 02:59:26;;;;;;;1999.90;999.90;;;;;;;;;;5014566;28;20604;-70
2022/01/25 03:02:11;;;;;;;1999.90;999.90;;;;;;;;;;5014927;28;20223;-70
2022/01/25 03:04:56;;;;;;;1999.90;999.90;;;;;;;;;;5014606;28;20783;-70
2022/01/25 03:07:43;;;;;;;1999.90;999.90;;;;;;;;;;5014719;28;20210;-70
2022/01/25 03:10:37;;;;;;;1999.90;999.90;;;;;;;;;;5014814;28;20705;-70
2022/01/25 03:13:28;;;;;;;1999.90;999.90;;;;;;;;;;5014973;28;20342;-70
2022/01/25 03:16:19;;;;;;;1999.90;999.90;;;;;;;;;;5014263;28;20612;-70
2022/01/25 03:19:27;;;;;;;1999.90;999.90;;;;;;;;;;5014106;28;20228;-70
2022/01/25 03:22:16;;;;;;;1999.90;999.90;;;;;;;;;;5014674;28;20701;-70
2022/01/25 03:25:01;;;;;;;1999.90;999.90;;;;;;;;;;5014449;28;20225;-70
2022/01/25 03:27:47;;;;;;;1999.90;999.90;;;;;;;;;;5014497;28;20206;-69
2022/01/25 03:30:32;;;;;;;1999.90;999.90;;;;;;;;;;5014424;28;20585;-70
2022/01/25 03:33:17;;;;;;;1999.90;999.90;;;;;;;;;;5014093;28;20206;-69
2022/01/25 03:36:02;;;;;;;1999.90;999.90;;;;;;;;;;5014312;28;20234;-71
2022/01/25 03:38:48;;;;;;;1999.90;999.90;;;;;;;;;;5013802;28;20223;-69
2022/01/25 03:41:33;;;;;;;1999.90;999.90;;;;;;;;;;5014329;28;20457;-70
2022/01/25 03:44:20;;;;;;;1999.90;999.90;;;;;;;;;;5014421;28;20206;-69
2022/01/25 03:47:10;;;;;;;1999.90;999.90;;;;;;;;;;5013939;28;20226;-70
2022/01/25 03:49:54;;;;;;;1999.90;999.90;;;;;;;;;;5013998;28;20293;-70
2022/01/25 03:52:39;;;;;;;1999.90;999.90;;;;;;;;;;5014326;28;20202;-70
2022/01/25 03:55:24;;;;;;;1999.90;999.90;;;;;;;;;;5013994;28;20898;-70
2022/01/25 03:58:09;;;;;;;1999.90;999.90;;;;;;;;;;5013682;28;20689;-70
2022/01/25 04:00:56;;;;;;;1999.90;999.90;;;;;;;;;;5013705;28;20203;-70
2022/01/25 04:03:47;;;;;;;1999.90;999.90;;;;;;;;;;5013870;28;20214;-70
2022/01/25 04:06:34;;;;;;;1999.90;999.90;;;;;;;;;;5013720;28;20301;-70
2022/01/25 04:09:19;;;;;;;1999.90;999.90;;;;;;;;;;5012574;28;20404;-68
2022/01/25 04:12:04;;;;;;;1999.90;999.90;;;;;;;;;;5013827;28;20338;-70
2022/01/25 04:14:49;;;;;;;1999.90;999.90;;;;;;;;;;5013549;28;20206;-69
2022/01/25 04:17:36;;;;;;;1999.90;999.90;;;;;;;;;;5013573;28;20211;-69
2022/01/25 04:20:25;;;;;;;1999.90;999.90;;;;;;;;;;5013289;28;20293;-70
2022/01/25 04:26:13;;;;;;;1999.90;999.90;;;;;;;;;;5013500;28;20218;-68
2022/01/25 04:28:57;;;;;;;1999.90;999.90;;;;;;;;;;5013229;28;20202;-70
2022/01/25 04:31:43;;;;;;;1999.90;999.90;;;;;;;;;;5013432;28;20277;-70
2022/01/25 04:34:42;;;;;;;1999.90;999.90;;;;;;;;;;5012183;28;20404;-70
2022/01/25 04:49:44;;;;;;;1999.90;999.90;;;;;;;;;;5031987;28;20191;-70
2022/01/25 04:52:34;;;;;;;1999.90;999.90;;;;;;;;;;5021088;28;20356;-69
2022/01/25 04:55:25;;;;;;;1999.90;999.90;;;;;;;;;;5032746;28;20230;-68
2022/01/25 04:58:16;;;;;;;1999.90;999.90;;;;;;;;;;5049972;28;20217;-70
2022/01/25 05:01:01;;;;;;;1999.90;999.90;;;;;;;;;;5039465;28;20198;-70
2022/01/25 05:04:02;;;;;;;1999.90;999.90;;;;;;;;;;5030179;28;20214;-69
2022/01/25 05:06:50;;;;;;;1999.90;999.90;;;;;;;;;;5026736;28;20234;-71
2022/01/25 05:09:37;;;;;;;1999.90;999.90;;;;;;;;;;5025337;28;20208;-69
2022/01/25 05:12:32;;;;;;;1999.90;999.90;;;;;;;;;;5026895;28;20693;-70
2022/01/25 05:15:23;;;;;;;1999.90;999.90;;;;;;;;;;5027014;28;20757;-69
2022/01/25 05:18:14;;;;;;;1999.90;999.90;;;;;;;;;;5030410;28;20582;-70
2022/01/25 05:24:03;;;;;;;1999.90;999.90;;;;;;;;;;5026554;28;20763;-69
2022/01/25 05:26:48;;;;;;;1999.90;999.90;;;;;;;;;;5028994;28;20229;-70
2022/01/25 05:29:33;;;;;;;1999.90;999.90;;;;;;;;;;5037536;28;20223;-70
2022/01/25 05:32:18;;;;;;;1999.90;999.90;;;;;;;;;;5033076;28;20211;-70
2022/01/25 05:35:03;;;;;;;1999.90;999.90;;;;;;;;;;5023852;28;20231;-68
2022/01/25 05:37:49;;;;;;;1999.90;999.90;;;;;;;;;;5019590;28;20968;-69
2022/01/25 05:40:44;;;;;;;1999.90;999.90;;;;;;;;;;5018444;28;20573;-70
2022/01/25 05:46:37;;;;;;;1999.90;999.90;;;;;;;;;;5023065;28;20731;-70
2022/01/25 05:49:21;;;;;;;1999.90;999.90;;;;;;;;;;5027621;28;20203;-70
2022/01/25 05:52:08;;;;;;;1999.90;999.90;;;;;;;;;;5017453;28;20263;-70
2022/01/25 05:54:53;;;;;;;1999.90;999.90;;;;;;;;;;5011984;28;20265;-70
2022/01/25 05:57:39;;;;;;;1999.90;999.90;;;;;;;;;;5028103;28;20314;-69
2022/01/25 06:00:24;;;;;;;1999.90;999.90;;;;;;;;;;5019857;28;20234;-71
2022/01/25 06:03:09;;;;;;;1999.90;999.90;;;;;;;;;;5016364;28;20455;-70
2022/01/25 06:05:54;;;;;;;1999.90;999.90;;;;;;;;;;5023314;28;20228;-68
2022/01/25 06:08:39;;;;;;;1999.90;999.90;;;;;;;;;;5042201;28;20211;-70
2022/01/25 06:11:24;;;;;;;1999.90;999.90;;;;;;;;;;5019605;28;20213;-70
2022/01/25 06:14:10;;;;;;;1999.90;999.90;;;;;;;;;;5021583;28;20292;-69
2022/01/25 06:16:55;;;;;;;1999.90;999.90;;;;;;;;;;5023197;28;20616;-70
2022/01/25 06:19:40;;;;;;;1999.90;999.90;;;;;;;;;;5031462;28;20226;-70
2022/01/25 06:22:25;;;;;;;1999.90;999.90;;;;;;;;;;5023738;28;20206;-70
2022/01/25 06:25:11;;;;;;;1999.90;999.90;;;;;;;;;;5020983;28;20267;-70
2022/01/25 06:27:55;;;;;;;1999.90;999.90;;;;;;;;;;5016217;28;20206;-70
2022/01/25 06:30:42;;;;;;;1999.90;999.90;;;;;;;;;;5015660;28;20298;-70
2022/01/25 06:33:27;;;;;;;1999.90;999.90;;;;;;;;;;5031730;28;20261;-70
2022/01/25 06:36:12;;;;;;;1999.90;999.90;;;;;;;;;;5021708;28;20234;-70
2022/01/25 06:38:57;;;;;;;1999.90;999.90;;;;;;;;;;5022202;28;20708;-69
2022/01/25 06:41:42;;;;;;;1999.90;999.90;;;;;;;;;;5031569;28;20218;-70
2022/01/25 06:44:27;;;;;;;1999.90;999.90;;;;;;;;;;5023559;28;20630;-69
2022/01/25 06:47:13;;;;;;;1999.90;999.90;;;;;;;;;;5020471;28;20232;-70
2022/01/25 06:49:58;;;;;;;1999.90;999.90;;;;;;;;;;5019277;28;20262;-70
2022/01/25 06:52:43;;;;;;;1999.90;999.90;;;;;;;;;;5024430;28;20291;-69
2022/01/25 06:55:28;;;;;;;1999.90;999.90;;;;;;;;;;5031185;28;20241;-70
2022/01/25 06:58:13;;;;;;;1999.90;999.90;;;;;;;;;;5021239;28;20203;-70
2022/01/25 07:00:58;;;;;;;1999.90;999.90;;;;;;;;;;5021881;28;20231;-69
2022/01/25 07:03:45;;;;;;;1999.90;999.90;;;;;;;;;;5031027;28;20431;-69
2022/01/25 07:06:30;;;;;;;1999.90;999.90;;;;;;;;;;5034202;28;20238;-69
2022/01/25 07:09:14;;;;;;;1999.90;999.90;;;;;;;;;;5038813;28;20210;-70
2022/01/25 07:12:00;;;;;;;1999.90;999.90;;;;;;;;;;5019385;28;20713;-69
2022/01/25 07:14:45;;;;;;;1999.90;999.90;;;;;;;;;;5023533;28;20207;-70
2022/01/25 07:17:30;;;;;;;1999.90;999.90;;;;;;;;;;5030966;28;20230;-69
2022/01/25 07:20:16;;;;;;;1999.90;999.90;;;;;;;;;;5019905;28;20594;-69
2022/01/25 07:23:01;;;;;;;1999.90;999.90;;;;;;;;;;5021291;28;20591;-69
2022/01/25 07:25:46;;;;;;;1999.90;999.90;;;;;;;;;;5030664;28;20237;-70
2022/01/25 07:28:30;;;;;;;1999.90;999.90;;;;;;;;;;5022681;28;20205;-69
2022/01/25 07:31:15;;;;;;;1999.90;999.90;;;;;;;;;;5018706;28;20484;-70
2022/01/25 07:34:00;;;;;;;1999.90;999.90;;;;;;;;;;5019013;28;20424;-70
2022/01/25 07:36:46;;;;;;;1999.90;999.90;;;;;;;;;;5025626;28;20248;-70
2022/01/25 07:39:31;;;;;;;1999.90;999.90;;;;;;;;;;5017573;28;20701;-68
2022/01/25 07:42:17;;;;;;;1999.90;999.90;;;;;;;;;;5027429;28;20207;-66
2022/01/25 07:45:07;;;;;;;1999.90;999.90;;;;;;;;;;5027703;28;20276;-70
2022/01/25 07:47:52;;;;;;;1999.90;999.90;;;;;;;;;;5017243;28;20207;-69
2022/01/25 07:50:38;;;;;;;1999.90;999.90;;;;;;;;;;5024124;28;20330;-70
2022/01/25 07:53:24;;;;;;;1999.90;999.90;;;;;;;;;;5030041;28;20345;-70
2022/01/25 07:56:09;;;;;;;1999.90;999.90;;;;;;;;;;5027621;28;20234;-67
2022/01/25 07:58:55;;;;;;;1999.90;999.90;;;;;;;;;;5034239;28;20304;-70
2022/01/25 08:01:40;;;;;;;1999.90;999.90;;;;;;;;;;5054315;28;20218;-69
2022/01/25 08:04:26;;;;;;;1999.90;999.90;;;;;;;;;;5042093;28;20210;-70
2022/01/25 08:07:12;;;;;;;1999.90;999.90;;;;;;;;;;5035847;28;20321;-67
2022/01/25 08:09:59;;;;;;;1999.90;999.90;;;;;;;;;;5019098;28;20346;-69
2022/01/25 08:12:44;;;;;;;1999.90;999.90;;;;;;;;;;5034307;28;20225;-70
2022/01/25 08:15:29;;;;;;;1999.90;999.90;;;;;;;;;;5028840;28;20238;-70
2022/01/25 08:18:14;;;;;;;1999.90;999.90;;;;;;;;;;5030840;28;20595;-70
2022/01/25 08:20:59;;;;;;;1999.90;999.90;;;;;;;;;;5014289;28;20220;-70
2022/01/25 08:23:43;;;;;;;1999.90;999.90;;;;;;;;;;5014546;28;20216;-70
2022/01/25 08:26:30;;;;;;;1999.90;999.90;;;;;;;;;;5016330;28;20222;-70
2022/01/25 08:29:15;;;;;;;1999.90;999.90;;;;;;;;;;5023106;28;20215;-70
2022/01/25 08:32:00;;;;;;;1999.90;999.90;;;;;;;;;;5029237;28;20276;-68
2022/01/25 08:34:45;;;;;;;1999.90;999.90;;;;;;;;;;5022834;28;20205;-70
2022/01/25 08:37:30;;;;;;;1999.90;999.90;;;;;;;;;;5025820;28;20209;-70
2022/01/25 08:40:14;;;;;;;1999.90;999.90;;;;;;;;;;5015947;28;20232;-69
2022/01/25 08:43:01;;;;;;;1999.90;999.90;;;;;;;;;;5033759;28;20231;-68
2022/01/25 08:45:46;;;;;;;1999.90;999.90;;;;;;;;;;5031533;28;20748;-70
2022/01/25 08:48:31;;;;;;;1999.90;999.90;;;;;;;;;;5037132;28;20211;-70
2022/01/25 08:51:16;;;;;;;1999.90;999.90;;;;;;;;;;5022501;28;20577;-70
2022/01/25 08:54:01;;;;;;;1999.90;999.90;;;;;;;;;;5012613;28;20211;-69
2022/01/25 08:56:46;;;;;;;1999.90;999.90;;;;;;;;;;5018390;28;20904;-69
2022/01/25 08:59:32;;;;;;;1999.90;999.90;;;;;;;;;;5031502;28;20684;-70
2022/01/25 09:02:17;;;;;;;1999.90;999.90;;;;;;;;;;5034963;28;20324;-70
2022/01/25 09:05:02;;;;;;;1999.90;999.90;;;;;;;;;;5020722;28;20305;-69
2022/01/25 09:07:47;;;;;;;1999.90;999.90;;;;;;;;;;5017949;28;20278;-69
2022/01/25 09:10:32;;;;;;;1999.90;999.90;;;;;;;;;;5016618;28;20225;-70
2022/01/25 09:13:17;;;;;;;1999.90;999.90;;;;;;;;;;5021910;28;20211;-69
2022/01/25 09:16:04;;;;;;;1999.90;999.90;;;;;;;;;;5028664;28;20344;-69
2022/01/25 09:18:49;;;;;;;1999.90;999.90;;;;;;;;;;5018507;28;20241;-69
2022/01/25 09:21:34;;;;;;;1999.90;999.90;;;;;;;;;;5019202;28;20802;-71
2022/01/25 09:24:19;;;;;;;1999.90;999.90;;;;;;;;;;5026581;28;20804;-69
2022/01/25 09:27:07;;;;;;;1999.90;999.90;;;;;;;;;;5026348;28;20211;-71
2022/01/25 09:29:52;;;;;;;1999.90;999.90;;;;;;;;;;5029565;28;20206;-70
2022/01/25 09:32:38;;;;;;;1999.90;999.90;;;;;;;;;;5017739;28;20269;-71
2022/01/25 09:35:23;;;;;;;1999.90;999.90;;;;;;;;;;5034490;28;20364;-71
2022/01/25 09:38:08;;;;;;;1999.90;999.90;;;;;;;;;;5037133;28;20336;-70
2022/01/25 09:40:54;;;;;;;1999.90;999.90;;;;;;;;;;5015641;28;20226;-71
2022/01/25 09:43:39;;;;;;;1999.90;999.90;;;;;;;;;;5037519;28;20205;-70
2022/01/25 09:46:24;;;;;;;1999.90;999.90;;;;;;;;;;5036691;28;20284;-70
2022/01/25 09:49:10;;;;;;;1999.90;999.90;;;;;;;;;;5035026;28;20214;-69
2022/01/25 09:51:55;;;;;;;1999.90;999.90;;;;;;;;;;5043537;28;20279;-70
2022/01/25 09:54:41;;;;;;;1999.90;999.90;;;;;;;;;;5037737;28;20318;-69
2022/01/25 09:57:26;;;;;;;1999.90;999.90;;;;;;;;;;5022550;28;20797;-71
2022/01/25 10:00:13;;;;;;;1999.90;999.90;;;;;;;;;;5030983;28;20238;-70
2022/01/25 10:03:06;;;;;;;1999.90;999.90;;;;;;;;;;5044210;28;20210;-71
2022/01/25 10:05:55;;;;;;;1999.90;999.90;;;;;;;;;;5014340;28;20242;-69
2022/01/25 10:08:40;;;;;;;1999.90;999.90;;;;;;;;;;5030295;28;20206;-70
2022/01/25 10:11:25;;;;;;;1999.90;999.90;;;;;;;;;;5022190;28;20579;-69
2022/01/25 10:14:10;;;;;;;1999.90;999.90;;;;;;;;;;5036999;28;20333;-70
2022/01/25 10:16:55;;;;;;;1999.90;999.90;;;;;;;;;;5028618;28;20239;-70
2022/01/25 10:19:41;;;;;;;1999.90;999.90;;;;;;;;;;5027119;28;20229;-70
2022/01/25 10:22:27;;;;;;;1999.90;999.90;;;;;;;;;;5017790;28;20216;-71
2022/01/25 10:25:12;;;;;;;1999.90;999.90;;;;;;;;;;5018359;28;20412;-70
2022/01/25 10:28:00;;;;;;;1999.90;999.90;;;;;;;;;;5016372;28;20212;-70
2022/01/25 10:30:48;;;;;;;1999.90;999.90;;;;;;;;;;5022770;28;20202;-71
2022/01/25 10:33:36;;;;;;;1999.90;999.90;;;;;;;;;;5016742;28;20697;-72
2022/01/25 10:36:22;;;;;;;1999.90;999.90;;;;;;;;;;5016573;28;20253;-70
2022/01/25 10:39:09;;;;;;;1999.90;999.90;;;;;;;;;;5019717;28;20210;-70
2022/01/25 10:42:01;;;;;;;1999.90;999.90;;;;;;;;;;5023532;28;20309;-69
2022/01/25 10:44:47;;;;;;;1999.90;999.90;;;;;;;;;;5022852;28;20206;-70
2022/01/25 10:47:39;;;;;;;1999.90;999.90;;;;;;;;;;5032640;28;20223;-70
2022/01/25 10:50:26;;;;;;;1999.90;999.90;;;;;;;;;;5037896;28;20218;-70
2022/01/25 10:53:17;;;;;;;1999.90;999.90;;;;;;;;;;5015043;28;20201;-70
2022/01/25 10:56:04;;;;;;;1999.90;999.90;;;;;;;;;;5025074;28;20230;-68
2022/01/25 10:58:49;;;;;;;1999.90;999.90;;;;;;;;;;5033202;28;20223;-70
2022/01/25 11:01:35;;;;;;;1999.90;999.90;;;;;;;;;;5015724;28;20788;-70
2022/01/25 11:04:22;;;;;;;1999.90;999.90;;;;;;;;;;5027639;28;20221;-70
2022/01/25 11:07:08;;;;;;;1999.90;999.90;;;;;;;;;;5017951;28;20205;-70
2022/01/25 11:09:53;;;;;;;1999.90;999.90;;;;;;;;;;5024848;28;20214;-71
2022/01/25 11:12:46;;;;;;;1999.90;999.90;;;;;;;;;;5014724;28;20198;-69
2022/01/25 11:15:31;;;;;;;1999.90;999.90;;;;;;;;;;5026499;28;20246;-69
2022/01/25 11:18:16;;;;;;;1999.90;999.90;;;;;;;;;;5038666;28;20214;-70
2022/01/25 11:21:02;;;;;;;1999.90;999.90;;;;;;;;;;5021353;28;20219;-70
2022/01/25 11:23:48;;;;;;;1999.90;999.90;;;;;;;;;;5021532;28;20481;-71
2022/01/25 11:26:33;;;;;;;1999.90;999.90;;;;;;;;;;5037155;28;20233;-71
2022/01/25 11:29:20;;;;;;;1999.90;999.90;;;;;;;;;;5030860;28;20206;-70
2022/01/25 11:32:06;;;;;;;1999.90;999.90;;;;;;;;;;5027371;28;20804;-70
2022/01/25 11:34:52;;;;;;;1999.90;999.90;;;;;;;;;;5014058;28;20251;-70
2022/01/25 11:37:38;;;;;;;1999.90;999.90;;;;;;;;;;5025568;28;20257;-70
2022/01/25 11:40:24;;;;;;;1999.90;999.90;;;;;;;;;;5030899;28;20211;-70
2022/01/25 11:43:10;;;;;;;1999.90;999.90;;;;;;;;;;5020379;28;20206;-69
2022/01/25 11:46:04;;;;;;;1999.90;999.90;;;;;;;;;;5030454;28;20271;-70
2022/01/25 11:48:51;;;;;;;1999.90;999.90;;;;;;;;;;5017175;28;20229;-70
2022/01/25 11:51:36;;;;;;;1999.90;999.90;;;;;;;;;;5022652;28;20407;-70
2022/01/25 11:54:21;;;;;;;1999.90;999.90;;;;;;;;;;5025574;28;20273;-71
2022/01/25 11:57:10;;;;;;;1999.90;999.90;;;;;;;;;;5017534;28;20202;-70
2022/01/25 11:59:57;;;;;;;1999.90;999.90;;;;;;;;;;5029276;28;20758;-70
2022/01/25 12:02:45;;;;;;;1999.90;999.90;;;;;;;;;;5038462;28;20206;-71
2022/01/25 12:05:32;;;;;;;1999.90;999.90;;;;;;;;;;5032875;28;20301;-70
2022/01/25 12:08:27;;;;;;;1999.90;999.90;;;;;;;;;;5027651;28;20199;-71
2022/01/25 12:11:25;;;;;;;1999.90;999.90;;;;;;;;;;5033709;28;20195;-71
2022/01/25 12:14:10;;;;;;;1999.90;999.90;;;;;;;;;;5045094;28;20209;-70
2022/01/25 12:17:10;;;;;;;1999.90;999.90;;;;;;;;;;5039868;28;20756;-70
2022/01/25 12:19:58;;;;;;;1999.90;999.90;;;;;;;;;;5044606;28;20273;-69
2022/01/25 12:22:47;;;;;;;1999.90;999.90;;;;;;;;;;5053130;28;20197;-67
2022/01/25 12:25:47;;;;;;;1999.90;999.90;;;;;;;;;;5039181;28;20246;-69
2022/01/25 12:28:37;;;;;;;1999.90;999.90;;;;;;;;;;5040443;28;20707;-69
2022/01/25 12:31:24;;;;;;;1999.90;999.90;;;;;;;;;;5033306;28;20578;-71
2022/01/25 12:34:24;;;;;;;1999.90;999.90;;;;;;;;;;5032722;28;20215;-71
2022/01/25 12:37:33;;;;;;;1999.90;999.90;;;;;;;;;;5031553;28;20237;-71
2022/01/25 12:40:26;;;;;;;1999.90;999.90;;;;;;;;;;5045867;28;20713;-72
2022/01/25 12:43:16;;;;;;;1999.90;999.90;;;;;;;;;;5033026;28;20574;-71
2022/01/25 12:46:02;;;;;;;1999.90;999.90;;;;;;;;;;5031414;28;20228;-71
2022/01/25 12:48:48;;;;;;;1999.90;999.90;;;;;;;;;;5033988;28;20260;-71
2022/01/25 12:51:35;;;;;;;1999.90;999.90;;;;;;;;;;5022738;28;20574;-70
2022/01/25 12:54:25;;;;;;;1999.90;999.90;;;;;;;;;;5031370;28;20224;-70
2022/01/25 12:57:10;;;;;;;1999.90;999.90;;;;;;;;;;5033128;28;20233;-70
2022/01/25 12:59:55;;;;;;;1999.90;999.90;;;;;;;;;;5024586;28;20211;-70
2022/01/25 13:02:41;;;;;;;1999.90;999.90;;;;;;;;;;5036731;28;20598;-70
2022/01/25 13:05:26;;;;;;;1999.90;999.90;;;;;;;;;;5033476;28;20229;-70
2022/01/25 13:08:15;;;;;;;1999.90;999.90;;;;;;;;;;5027435;28;20202;-70
2022/01/25 13:11:17;;;;;;;1999.90;999.90;;;;;;;;;;5034618;28;20197;-71
2022/01/25 13:14:15;;;;;;;1999.90;999.90;;;;;;;;;;5042708;28;20212;-70
2022/01/25 13:17:01;;;;;;;1999.90;999.90;;;;;;;;;;5036141;28;20482;-71
2022/01/25 13:19:50;;;;;;;1999.90;999.90;;;;;;;;;;5038313;28;20211;-71
2022/01/25 13:22:36;;;;;;;1999.90;999.90;;;;;;;;;;5012107;28;20621;-71
2022/01/25 13:25:27;;;;;;;1999.90;999.90;;;;;;;;;;5012760;28;20596;-70
2022/01/25 13:28:31;;;;;;;1999.90;999.90;;;;;;;;;;5035624;28;20705;-68
2022/01/25 13:31:16;;;;;;;1999.90;999.90;;;;;;;;;;5029869;28;20245;-69
2022/01/25 13:34:02;;;;;;;1999.90;999.90;;;;;;;;;;5043031;28;20341;-70
2022/01/25 13:36:47;;;;;;;1999.90;999.90;;;;;;;;;;5046716;28;20233;-70
2022/01/25 13:39:35;;;;;;;1999.90;999.90;;;;;;;;;;5031755;28;20207;-69
2022/01/25 13:42:25;;;;;;;1999.90;999.90;;;;;;;;;;5031875;28;20229;-70
2022/01/25 13:48:19;;;;;;;1999.90;999.90;;;;;;;;;;5031506;28;20205;-71
2022/01/25 13:51:06;;;;;;;1999.90;999.90;;;;;;;;;;5012594;28;20700;-70
2022/01/25 13:53:53;;;;;;;1999.90;999.90;;;;;;;;;;5011819;28;20207;-69
2022/01/25 13:56:37;;;;;;;1999.90;999.90;;;;;;;;;;5012023;28;20728;-70
2022/01/25 13:59:24;;;;;;;1999.90;999.90;;;;;;;;;;5023719;28;20229;-69
2022/01/25 14:02:12;;;;;;;1999.90;999.90;;;;;;;;;;5018380;28;20223;-70
2022/01/25 14:05:00;;;;;;;1999.90;999.90;;;;;;;;;;5015174;28;20816;-70
2022/01/25 14:07:47;;;;;;;1999.90;999.90;;;;;;;;;;5026416;28;20206;-71
2022/01/25 14:10:32;;;;;;;1999.90;999.90;;;;;;;;;;5012008;28;20805;-70
2022/01/25 14:22:46;;;;;;;1999.90;999.90;;;;;;;;;;5024042;28;20350;-70
2022/01/25 14:25:33;;;;;;;1999.90;999.90;;;;;;;;;;5023503;28;20779;-70
2022/01/25 14:28:23;;;;;;;1999.90;999.90;;;;;;;;;;5029414;28;20217;-71
2022/01/25 14:31:14;;;;;;;1999.90;999.90;;;;;;;;;;5036432;28;20211;-71
2022/01/25 14:34:00;;;;;;;1999.90;999.90;;;;;;;;;;5041301;28;20207;-71
2022/01/25 14:36:48;;;;;;;1999.90;999.90;;;;;;;;;;5041321;28;20234;-70
2022/01/25 14:39:32;;;;;;;1999.90;999.90;;;;;;;;;;5036502;28;20331;-70
2022/01/25 14:42:19;;;;;;;1999.90;999.90;;;;;;;;;;5040538;28;20424;-71
2022/01/25 14:45:04;;;;;;;1999.90;999.90;;;;;;;;;;5017626;28;20231;-71
2022/01/25 14:47:50;;;;;;;1999.90;999.90;;;;;;;;;;5031413;28;20689;-68
2022/01/25 14:50:36;;;;;;;1999.90;999.90;;;;;;;;;;5022239;28;20210;-70
2022/01/25 14:53:22;;;;;;;1999.90;999.90;;;;;;;;;;5021914;28;20321;-71
2022/01/25 14:56:07;;;;;;;1999.90;999.90;;;;;;;;;;5026315;28;20234;-72
2022/01/25 15:01:56;;;;;;;1999.90;999.90;;;;;;;;;;5030804;28;20265;-70
2022/01/25 15:04:43;;;;;;;1999.90;999.90;;;;;;;;;;5022857;28;20341;-70
2022/01/25 15:07:30;;;;;;;1999.90;999.90;;;;;;;;;;5033361;28;20281;-70
2022/01/25 15:10:19;;;;;;;1999.90;999.90;;;;;;;;;;5043024;28;20215;-69
2022/01/25 15:13:05;;;;;;;1999.90;999.90;;;;;;;;;;5037765;28;20701;-68
2022/01/25 15:15:56;;;;;;;1999.90;999.90;;;;;;;;;;5030538;28;20245;-69
2022/01/25 15:18:41;;;;;;;1999.90;999.90;;;;;;;;;;5022189;28;20222;-71
2022/01/25 15:21:26;;;;;;;1999.90;999.90;;;;;;;;;;5020172;28;20226;-69
2022/01/25 15:24:11;;;;;;;1999.90;999.90;;;;;;;;;;5018247;28;20731;-70
2022/01/25 15:27:02;;;;;;;1999.90;999.90;;;;;;;;;;5027733;28;20258;-69
2022/01/25 15:29:47;;;;;;;1999.90;999.90;;;;;;;;;;5023931;28;20213;-70
2022/01/25 15:32:32;;;;;;;1999.90;999.90;;;;;;;;;;5019373;28;20203;-71
2022/01/25 15:35:20;;;;;;;1999.90;999.90;;;;;;;;;;5027037;28;20302;-69
2022/01/25 15:38:05;;;;;;;1999.90;999.90;;;;;;;;;;5017341;28;20211;-70
2022/01/25 15:40:50;;;;;;;1999.90;999.90;;;;;;;;;;5023974;28;20672;-69
2022/01/25 15:43:40;;;;;;;1999.90;999.90;;;;;;;;;;5027898;28;20445;-69
2022/01/25 15:46:29;;;;;;;1999.90;999.90;;;;;;;;;;5019923;28;20225;-69
2022/01/25 15:49:14;;;;;;;1999.90;999.90;;;;;;;;;;5021085;28;20216;-68
2022/01/25 15:52:00;;;;;;;1999.90;999.90;;;;;;;;;;5030416;28;20210;-69
2022/01/25 15:54:45;;;;;;;1999.90;999.90;;;;;;;;;;5022838;28;20218;-69
2022/01/25 15:57:30;;;;;;;1999.90;999.90;;;;;;;;;;5018425;28;20346;-70
2022/01/25 16:00:17;;;;;;;1999.90;999.90;;;;;;;;;;5018333;28;20213;-69
2022/01/25 16:03:03;;;;;;;1999.90;999.90;;;;;;;;;;5027599;28;20235;-69
2022/01/25 16:05:49;;;;;;;1999.90;999.90;;;;;;;;;;5036928;28;20354;-69
2022/01/25 16:08:34;;;;;;;1999.90;999.90;;;;;;;;;;5035299;28;20211;-69
2022/01/25 16:11:22;;;;;;;1999.90;999.90;;;;;;;;;;5019265;28;20446;-69
2022/01/25 16:14:08;;;;;;;1999.90;999.90;;;;;;;;;;5028058;28;20783;-70
2022/01/25 16:16:54;;;;;;;1999.90;999.90;;;;;;;;;;5032729;28;20237;-70
2022/01/25 16:19:39;;;;;;;1999.90;999.90;;;;;;;;;;5026863;28;20576;-70
2022/01/25 16:22:24;;;;;;;1999.90;999.90;;;;;;;;;;5022915;28;20222;-70
2022/01/25 16:25:09;;;;;;;1999.90;999.90;;;;;;;;;;5016636;28;20235;-69
2022/01/25 16:27:54;;;;;;;1999.90;999.90;;;;;;;;;;5014647;28;20710;-68
2022/01/25 16:30:40;;;;;;;1999.90;999.90;;;;;;;;;;5019620;28;20210;-69
2022/01/25 16:33:26;;;;;;;1999.90;999.90;;;;;;;;;;5028756;28;20206;-69
2022/01/25 16:36:11;;;;;;;1999.90;999.90;;;;;;;;;;5031644;28;20234;-68
2022/01/25 16:38:55;;;;;;;1999.90;999.90;;;;;;;;;;5026974;28;20204;-70
2022/01/25 16:41:40;;;;;;;1999.90;999.90;;;;;;;;;;5043542;28;20582;-70
2022/01/25 16:44:25;;;;;;;1999.90;999.90;;;;;;;;;;5014025;28;20208;-70
2022/01/25 16:47:11;;;;;;;1999.90;999.90;;;;;;;;;;5023261;28;20211;-69
2022/01/25 16:49:57;;;;;;;1999.90;999.90;;;;;;;;;;5029313;28;20213;-69
2022/01/25 16:52:42;;;;;;;1999.90;999.90;;;;;;;;;;5025745;28;20332;-70